sensor_id;sensor_type;location;lat;lon;timestamp;P1;durP1;ratioP1;P2;durP2;ratioP2
24445;SDS011;13347;50.984;5.822;2022-09-29T00:01:32;49.28;;;46.28;;
24445;SDS011;13347;50.984;5.822;2022-09-29T00:03:59;49.17;;;46.22;;
24445;SDS011;13347;50.984;5.822;2022-09-29T00:06:26;57.30;;;53.92;;
24445;SDS011;13347;50.984;5.822;2022-09-29T00:08:54;109.00;;;103.38;;
24445;SDS011;13347;50.984;5.822;2022-09-29T00:11:24;132.18;;;125.68;;
24445;SDS011;13347;50.984;5.822;2022-09-29T00:13:53;134.65;;;127.85;;
24445;SDS011;13347;50.984;5.822;2022-09-29T00:16:20;122.05;;;115.82;;
24445;SDS011;13347;50.984;5.822;2022-09-29T00:18:47;150.68;;;142.98;;
24445;SDS011;13347;50.984;5.822;2022-09-29T00:21:16;163.57;;;155.35;;
24445;SDS011;13347;50.984;5.822;2022-09-29T00:23:44;138.77;;;131.88;;
24445;SDS011;13347;50.984;5.822;2022-09-29T00:26:13;217.43;;;206.88;;
24445;SDS011;13347;50.984;5.822;2022-09-29T00:28:46;309.77;;;294.73;;
24445;SDS011;13347;50.984;5.822;2022-09-29T00:31:18;384.73;;;364.60;;
24445;SDS011;13347;50.984;5.822;2022-09-29T00:33:45;310.50;;;295.27;;
24445;SDS011;13347;50.984;5.822;2022-09-29T00:36:13;485.63;;;458.33;;
24445;SDS011;13347;50.984;5.822;2022-09-29T00:38:42;326.10;;;309.30;;
24445;SDS011;13347;50.984;5.822;2022-09-29T00:41:12;345.75;;;328.30;;
24445;SDS011;13347;50.984;5.822;2022-09-29T00:43:51;405.13;;;382.45;;
24445;SDS011;13347;50.984;5.822;2022-09-29T00:46:23;329.45;;;313.73;;
24445;SDS011;13347;50.984;5.822;2022-09-29T00:49:11;281.02;;;267.92;;
24445;SDS011;13347;50.984;5.822;2022-09-29T00:51:43;220.45;;;210.10;;
24445;SDS011;13347;50.984;5.822;2022-09-29T00:54:13;135.13;;;128.30;;
24445;SDS011;13347;50.984;5.822;2022-09-29T00:56:41;93.15;;;88.03;;
24445;SDS011;13347;50.984;5.822;2022-09-29T00:59:13;88.65;;;84.07;;
24445;SDS011;13347;50.984;5.822;2022-09-29T01:01:45;80.53;;;76.22;;
24445;SDS011;13347;50.984;5.822;2022-09-29T01:04:13;72.68;;;68.50;;
24445;SDS011;13347;50.984;5.822;2022-09-29T01:06:43;90.97;;;85.78;;
24445;SDS011;13347;50.984;5.822;2022-09-29T01:09:14;168.05;;;159.50;;
24445;SDS011;13347;50.984;5.822;2022-09-29T01:11:44;211.07;;;200.85;;
24445;SDS011;13347;50.984;5.822;2022-09-29T01:14:13;218.90;;;208.07;;
24445;SDS011;13347;50.984;5.822;2022-09-29T01:16:41;191.43;;;181.95;;
24445;SDS011;13347;50.984;5.822;2022-09-29T01:19:09;159.52;;;151.65;;
24445;SDS011;13347;50.984;5.822;2022-09-29T01:21:44;127.70;;;120.65;;
24445;SDS011;13347;50.984;5.822;2022-09-29T01:24:24;105.63;;;99.72;;
24445;SDS011;13347;50.984;5.822;2022-09-29T01:27:23;101.32;;;95.68;;
24445;SDS011;13347;50.984;5.822;2022-09-29T01:30:10;91.72;;;86.38;;
24445;SDS011;13347;50.984;5.822;2022-09-29T01:35:47;81.20;;;76.13;;
24445;SDS011;13347;50.984;5.822;2022-09-29T01:38:27;120.68;;;114.03;;
24445;SDS011;13347;50.984;5.822;2022-09-29T01:41:09;143.80;;;135.80;;
24445;SDS011;13347;50.984;5.822;2022-09-29T01:43:42;165.45;;;156.73;;
24445;SDS011;13347;50.984;5.822;2022-09-29T01:46:14;149.02;;;140.98;;
24445;SDS011;13347;50.984;5.822;2022-09-29T01:48:49;70.03;;;65.20;;
24445;SDS011;13347;50.984;5.822;2022-09-29T01:51:21;57.15;;;53.15;;
24445;SDS011;13347;50.984;5.822;2022-09-29T01:53:55;75.13;;;70.25;;
24445;SDS011;13347;50.984;5.822;2022-09-29T01:56:27;48.53;;;44.63;;
24445;SDS011;13347;50.984;5.822;2022-09-29T01:59:00;53.67;;;49.55;;
24445;SDS011;13347;50.984;5.822;2022-09-29T02:01:31;45.10;;;41.20;;
24445;SDS011;13347;50.984;5.822;2022-09-29T02:04:05;44.75;;;41.10;;
24445;SDS011;13347;50.984;5.822;2022-09-29T02:06:37;42.42;;;38.83;;
24445;SDS011;13347;50.984;5.822;2022-09-29T02:09:15;69.93;;;64.97;;
24445;SDS011;13347;50.984;5.822;2022-09-29T02:11:45;74.38;;;69.47;;
24445;SDS011;13347;50.984;5.822;2022-09-29T02:14:16;81.18;;;75.80;;
24445;SDS011;13347;50.984;5.822;2022-09-29T02:16:47;70.93;;;65.60;;
24445;SDS011;13347;50.984;5.822;2022-09-29T02:19:19;53.40;;;49.22;;
24445;SDS011;13347;50.984;5.822;2022-09-29T02:21:50;47.85;;;43.85;;
24445;SDS011;13347;50.984;5.822;2022-09-29T02:24:18;34.30;;;30.85;;
24445;SDS011;13347;50.984;5.822;2022-09-29T02:26:46;56.30;;;52.03;;
24445;SDS011;13347;50.984;5.822;2022-09-29T02:29:13;57.30;;;52.85;;
24445;SDS011;13347;50.984;5.822;2022-09-29T02:31:42;47.00;;;42.55;;
24445;SDS011;13347;50.984;5.822;2022-09-29T02:34:11;39.30;;;35.53;;
24445;SDS011;13347;50.984;5.822;2022-09-29T02:36:44;36.40;;;32.63;;
24445;SDS011;13347;50.984;5.822;2022-09-29T02:39:22;36.70;;;31.75;;
24445;SDS011;13347;50.984;5.822;2022-09-29T02:42:00;36.67;;;33.05;;
24445;SDS011;13347;50.984;5.822;2022-09-29T02:44:39;35.35;;;31.85;;
24445;SDS011;13347;50.984;5.822;2022-09-29T02:47:26;35.70;;;31.30;;
24445;SDS011;13347;50.984;5.822;2022-09-29T02:50:28;41.58;;;37.70;;
24445;SDS011;13347;50.984;5.822;2022-09-29T02:53:15;53.70;;;49.45;;
24445;SDS011;13347;50.984;5.822;2022-09-29T02:55:52;33.03;;;28.90;;
24445;SDS011;13347;50.984;5.822;2022-09-29T02:58:25;31.77;;;25.10;;
24445;SDS011;13347;50.984;5.822;2022-09-29T03:00:58;32.35;;;27.42;;
24445;SDS011;13347;50.984;5.822;2022-09-29T03:03:26;34.08;;;30.10;;
24445;SDS011;13347;50.984;5.822;2022-09-29T03:05:53;49.78;;;45.33;;
24445;SDS011;13347;50.984;5.822;2022-09-29T03:08:22;58.20;;;53.80;;
24445;SDS011;13347;50.984;5.822;2022-09-29T03:10:49;81.03;;;75.28;;
24445;SDS011;13347;50.984;5.822;2022-09-29T03:13:17;111.07;;;104.28;;
24445;SDS011;13347;50.984;5.822;2022-09-29T03:15:44;192.35;;;181.50;;
24445;SDS011;13347;50.984;5.822;2022-09-29T03:18:11;230.15;;;218.18;;
24445;SDS011;13347;50.984;5.822;2022-09-29T03:20:38;212.07;;;200.57;;
24445;SDS011;13347;50.984;5.822;2022-09-29T03:23:06;144.63;;;136.30;;
24445;SDS011;13347;50.984;5.822;2022-09-29T03:25:34;110.80;;;104.07;;
24445;SDS011;13347;50.984;5.822;2022-09-29T03:28:01;127.75;;;120.30;;
24445;SDS011;13347;50.984;5.822;2022-09-29T03:30:29;124.82;;;117.32;;
24445;SDS011;13347;50.984;5.822;2022-09-29T03:32:56;117.88;;;110.38;;
24445;SDS011;13347;50.984;5.822;2022-09-29T03:35:23;162.57;;;153.40;;
24445;SDS011;13347;50.984;5.822;2022-09-29T03:37:50;171.13;;;161.63;;
24445;SDS011;13347;50.984;5.822;2022-09-29T03:40:17;169.77;;;160.15;;
24445;SDS011;13347;50.984;5.822;2022-09-29T03:42:46;161.88;;;152.40;;
24445;SDS011;13347;50.984;5.822;2022-09-29T03:45:13;139.30;;;131.15;;
24445;SDS011;13347;50.984;5.822;2022-09-29T03:47:40;156.48;;;147.60;;
24445;SDS011;13347;50.984;5.822;2022-09-29T03:50:08;158.82;;;149.88;;
24445;SDS011;13347;50.984;5.822;2022-09-29T03:52:35;161.15;;;151.93;;
24445;SDS011;13347;50.984;5.822;2022-09-29T03:55:03;158.90;;;149.70;;
24445;SDS011;13347;50.984;5.822;2022-09-29T03:57:30;142.45;;;134.10;;
24445;SDS011;13347;50.984;5.822;2022-09-29T03:59:59;138.90;;;130.85;;
24445;SDS011;13347;50.984;5.822;2022-09-29T04:02:26;134.15;;;126.20;;
24445;SDS011;13347;50.984;5.822;2022-09-29T04:04:53;127.40;;;119.45;;
24445;SDS011;13347;50.984;5.822;2022-09-29T04:07:20;116.20;;;109.10;;
24445;SDS011;13347;50.984;5.822;2022-09-29T04:09:48;130.02;;;122.60;;
24445;SDS011;13347;50.984;5.822;2022-09-29T04:12:15;154.60;;;145.73;;
24445;SDS011;13347;50.984;5.822;2022-09-29T04:14:42;175.90;;;166.18;;
24445;SDS011;13347;50.984;5.822;2022-09-29T04:17:10;147.10;;;138.70;;
24445;SDS011;13347;50.984;5.822;2022-09-29T04:19:38;145.95;;;137.60;;
24445;SDS011;13347;50.984;5.822;2022-09-29T04:22:05;158.45;;;149.55;;
24445;SDS011;13347;50.984;5.822;2022-09-29T04:24:32;140.55;;;132.27;;
24445;SDS011;13347;50.984;5.822;2022-09-29T04:26:59;106.35;;;99.65;;
24445;SDS011;13347;50.984;5.822;2022-09-29T04:29:26;92.35;;;86.15;;
24445;SDS011;13347;50.984;5.822;2022-09-29T04:31:53;95.97;;;89.78;;
24445;SDS011;13347;50.984;5.822;2022-09-29T04:34:22;45.65;;;41.58;;
24445;SDS011;13347;50.984;5.822;2022-09-29T04:36:49;49.63;;;44.92;;
24445;SDS011;13347;50.984;5.822;2022-09-29T04:39:17;34.33;;;30.75;;
24445;SDS011;13347;50.984;5.822;2022-09-29T04:41:44;33.25;;;27.63;;
24445;SDS011;13347;50.984;5.822;2022-09-29T04:44:11;32.95;;;21.95;;
24445;SDS011;13347;50.984;5.822;2022-09-29T04:46:38;34.65;;;24.73;;
24445;SDS011;13347;50.984;5.822;2022-09-29T04:49:07;34.47;;;23.02;;
24445;SDS011;13347;50.984;5.822;2022-09-29T04:51:36;34.08;;;30.42;;
24445;SDS011;13347;50.984;5.822;2022-09-29T04:54:03;32.78;;;29.10;;
24445;SDS011;13347;50.984;5.822;2022-09-29T04:56:30;32.08;;;28.05;;
24445;SDS011;13347;50.984;5.822;2022-09-29T04:58:58;46.95;;;42.47;;
24445;SDS011;13347;50.984;5.822;2022-09-29T05:01:25;54.30;;;49.72;;
24445;SDS011;13347;50.984;5.822;2022-09-29T05:03:53;79.38;;;73.95;;
24445;SDS011;13347;50.984;5.822;2022-09-29T05:06:20;76.68;;;71.03;;
24445;SDS011;13347;50.984;5.822;2022-09-29T05:08:49;64.07;;;59.30;;
24445;SDS011;13347;50.984;5.822;2022-09-29T05:11:16;51.13;;;46.60;;
24445;SDS011;13347;50.984;5.822;2022-09-29T05:13:43;48.60;;;44.38;;
24445;SDS011;13347;50.984;5.822;2022-09-29T05:16:14;77.85;;;72.07;;
24445;SDS011;13347;50.984;5.822;2022-09-29T05:18:41;47.90;;;43.00;;
24445;SDS011;13347;50.984;5.822;2022-09-29T05:21:08;33.00;;;28.83;;
24445;SDS011;13347;50.984;5.822;2022-09-29T05:23:35;80.30;;;74.68;;
24445;SDS011;13347;50.984;5.822;2022-09-29T05:26:05;103.85;;;96.85;;
24445;SDS011;13347;50.984;5.822;2022-09-29T05:28:34;126.20;;;118.57;;
24445;SDS011;13347;50.984;5.822;2022-09-29T05:31:02;120.90;;;113.18;;
24445;SDS011;13347;50.984;5.822;2022-09-29T05:33:32;140.25;;;131.45;;
24445;SDS011;13347;50.984;5.822;2022-09-29T05:36:02;143.57;;;134.48;;
24445;SDS011;13347;50.984;5.822;2022-09-29T05:38:30;137.30;;;128.95;;
24445;SDS011;13347;50.984;5.822;2022-09-29T05:41:02;122.30;;;114.35;;
24445;SDS011;13347;50.984;5.822;2022-09-29T05:43:31;117.93;;;110.50;;
24445;SDS011;13347;50.984;5.822;2022-09-29T05:45:58;119.63;;;112.18;;
24445;SDS011;13347;50.984;5.822;2022-09-29T05:48:27;117.90;;;110.32;;
24445;SDS011;13347;50.984;5.822;2022-09-29T05:50:55;107.55;;;100.47;;
24445;SDS011;13347;50.984;5.822;2022-09-29T05:53:23;108.57;;;101.53;;
24445;SDS011;13347;50.984;5.822;2022-09-29T05:55:50;117.20;;;109.90;;
24445;SDS011;13347;50.984;5.822;2022-09-29T05:58:19;129.60;;;121.65;;
24445;SDS011;13347;50.984;5.822;2022-09-29T06:00:46;152.07;;;143.13;;
24445;SDS011;13347;50.984;5.822;2022-09-29T06:03:13;154.75;;;145.50;;
24445;SDS011;13347;50.984;5.822;2022-09-29T06:05:41;150.70;;;141.93;;
24445;SDS011;13347;50.984;5.822;2022-09-29T06:08:08;144.20;;;135.35;;
24445;SDS011;13347;50.984;5.822;2022-09-29T06:10:36;131.93;;;123.55;;
24445;SDS011;13347;50.984;5.822;2022-09-29T06:13:03;109.47;;;102.18;;
24445;SDS011;13347;50.984;5.822;2022-09-29T06:15:32;85.00;;;78.68;;
24445;SDS011;13347;50.984;5.822;2022-09-29T06:17:59;77.43;;;71.28;;
24445;SDS011;13347;50.984;5.822;2022-09-29T06:20:26;88.93;;;82.03;;
24445;SDS011;13347;50.984;5.822;2022-09-29T06:22:54;95.72;;;89.07;;
24445;SDS011;13347;50.984;5.822;2022-09-29T06:25:22;97.65;;;90.68;;
24445;SDS011;13347;50.984;5.822;2022-09-29T06:27:49;107.65;;;100.40;;
24445;SDS011;13347;50.984;5.822;2022-09-29T06:30:17;111.18;;;103.53;;
24445;SDS011;13347;50.984;5.822;2022-09-29T06:32:46;118.28;;;110.63;;
24445;SDS011;13347;50.984;5.822;2022-09-29T06:35:13;115.35;;;107.80;;
24445;SDS011;13347;50.984;5.822;2022-09-29T06:37:57;101.75;;;94.55;;
24445;SDS011;13347;50.984;5.822;2022-09-29T06:40:26;45.22;;;40.60;;
24445;SDS011;13347;50.984;5.822;2022-09-29T06:42:54;45.20;;;40.58;;
24445;SDS011;13347;50.984;5.822;2022-09-29T06:45:21;51.13;;;46.22;;
24445;SDS011;13347;50.984;5.822;2022-09-29T06:47:52;42.67;;;38.15;;
24445;SDS011;13347;50.984;5.822;2022-09-29T06:50:24;32.55;;;25.58;;
24445;SDS011;13347;50.984;5.822;2022-09-29T06:52:51;35.63;;;29.85;;
24445;SDS011;13347;50.984;5.822;2022-09-29T06:55:18;31.92;;;25.33;;
24445;SDS011;13347;50.984;5.822;2022-09-29T06:57:45;32.88;;;28.98;;
24445;SDS011;13347;50.984;5.822;2022-09-29T07:00:13;46.55;;;42.20;;
24445;SDS011;13347;50.984;5.822;2022-09-29T07:02:43;28.38;;;25.10;;
24445;SDS011;13347;50.984;5.822;2022-09-29T07:05:12;30.25;;;24.83;;
24445;SDS011;13347;50.984;5.822;2022-09-29T07:07:40;28.73;;;25.65;;
24445;SDS011;13347;50.984;5.822;2022-09-29T07:10:08;32.97;;;29.67;;
24445;SDS011;13347;50.984;5.822;2022-09-29T07:12:35;36.85;;;33.60;;
24445;SDS011;13347;50.984;5.822;2022-09-29T07:15:02;28.48;;;25.52;;
24445;SDS011;13347;50.984;5.822;2022-09-29T07:17:30;68.47;;;64.13;;
24445;SDS011;13347;50.984;5.822;2022-09-29T07:19:57;74.82;;;70.50;;
24445;SDS011;13347;50.984;5.822;2022-09-29T07:22:26;83.07;;;78.38;;
24445;SDS011;13347;50.984;5.822;2022-09-29T07:24:53;333.55;;;317.80;;
24445;SDS011;13347;50.984;5.822;2022-09-29T07:27:20;220.40;;;210.18;;
24445;SDS011;13347;50.984;5.822;2022-09-29T07:29:48;42.55;;;40.10;;
24445;SDS011;13347;50.984;5.822;2022-09-29T07:32:15;21.95;;;20.38;;
24445;SDS011;13347;50.984;5.822;2022-09-29T07:34:43;16.77;;;15.60;;
24445;SDS011;13347;50.984;5.822;2022-09-29T07:37:10;12.43;;;11.43;;
24445;SDS011;13347;50.984;5.822;2022-09-29T07:39:39;19.25;;;18.02;;
24445;SDS011;13347;50.984;5.822;2022-09-29T07:42:06;10.27;;;9.55;;
24445;SDS011;13347;50.984;5.822;2022-09-29T07:44:33;12.48;;;11.57;;
24445;SDS011;13347;50.984;5.822;2022-09-29T07:47:01;10.38;;;9.48;;
24445;SDS011;13347;50.984;5.822;2022-09-29T07:49:28;18.38;;;17.38;;
24445;SDS011;13347;50.984;5.822;2022-09-29T07:51:55;20.05;;;18.95;;
24445;SDS011;13347;50.984;5.822;2022-09-29T07:54:22;17.77;;;16.52;;
24445;SDS011;13347;50.984;5.822;2022-09-29T07:56:51;14.63;;;13.60;;
24445;SDS011;13347;50.984;5.822;2022-09-29T07:59:18;17.73;;;16.52;;
24445;SDS011;13347;50.984;5.822;2022-09-29T08:01:46;51.50;;;48.75;;
24445;SDS011;13347;50.984;5.822;2022-09-29T08:04:13;57.05;;;54.15;;
24445;SDS011;13347;50.984;5.822;2022-09-29T08:06:40;53.65;;;51.08;;
24445;SDS011;13347;50.984;5.822;2022-09-29T08:09:07;47.17;;;44.88;;
24445;SDS011;13347;50.984;5.822;2022-09-29T08:11:36;102.95;;;98.35;;
24445;SDS011;13347;50.984;5.822;2022-09-29T08:14:05;64.30;;;61.40;;
24445;SDS011;13347;50.984;5.822;2022-09-29T08:16:33;95.90;;;91.55;;
24445;SDS011;13347;50.984;5.822;2022-09-29T08:19:02;165.85;;;158.30;;
24445;SDS011;13347;50.984;5.822;2022-09-29T08:21:31;60.15;;;57.25;;
24445;SDS011;13347;50.984;5.822;2022-09-29T08:24:01;57.03;;;54.38;;
24445;SDS011;13347;50.984;5.822;2022-09-29T08:26:30;68.53;;;65.28;;
24445;SDS011;13347;50.984;5.822;2022-09-29T08:29:02;99.93;;;95.32;;
24445;SDS011;13347;50.984;5.822;2022-09-29T08:31:31;82.85;;;78.85;;
24445;SDS011;13347;50.984;5.822;2022-09-29T08:33:58;49.75;;;47.15;;
24445;SDS011;13347;50.984;5.822;2022-09-29T08:36:26;57.90;;;55.25;;
24445;SDS011;13347;50.984;5.822;2022-09-29T08:38:54;54.88;;;52.22;;
24445;SDS011;13347;50.984;5.822;2022-09-29T08:41:29;19.65;;;18.63;;
24445;SDS011;13347;50.984;5.822;2022-09-29T08:44:03;45.08;;;42.90;;
24445;SDS011;13347;50.984;5.822;2022-09-29T08:46:38;54.53;;;51.90;;
24445;SDS011;13347;50.984;5.822;2022-09-29T08:49:09;72.00;;;68.70;;
24445;SDS011;13347;50.984;5.822;2022-09-29T08:54:14;60.78;;;57.83;;
24445;SDS011;13347;50.984;5.822;2022-09-29T08:56:46;92.65;;;88.60;;
24445;SDS011;13347;50.984;5.822;2022-09-29T08:59:14;126.75;;;121.07;;
24445;SDS011;13347;50.984;5.822;2022-09-29T09:01:46;141.02;;;134.82;;
24445;SDS011;13347;50.984;5.822;2022-09-29T09:04:32;149.38;;;142.70;;
24445;SDS011;13347;50.984;5.822;2022-09-29T09:07:14;226.52;;;216.13;;
24445;SDS011;13347;50.984;5.822;2022-09-29T09:09:54;215.73;;;205.98;;
24445;SDS011;13347;50.984;5.822;2022-09-29T09:12:39;226.50;;;216.60;;
24445;SDS011;13347;50.984;5.822;2022-09-29T09:18:23;331.05;;;315.88;;
24445;SDS011;13347;50.984;5.822;2022-09-29T09:21:11;265.00;;;253.40;;
24445;SDS011;13347;50.984;5.822;2022-09-29T09:23:47;281.23;;;268.58;;
24445;SDS011;13347;50.984;5.822;2022-09-29T09:26:19;326.02;;;311.27;;
24445;SDS011;13347;50.984;5.822;2022-09-29T09:28:54;314.92;;;300.67;;
24445;SDS011;13347;50.984;5.822;2022-09-29T09:31:26;408.33;;;388.67;;
24445;SDS011;13347;50.984;5.822;2022-09-29T09:33:58;344.23;;;328.13;;
24445;SDS011;13347;50.984;5.822;2022-09-29T09:36:30;417.83;;;397.90;;
24445;SDS011;13347;50.984;5.822;2022-09-29T09:39:01;433.02;;;412.35;;
24445;SDS011;13347;50.984;5.822;2022-09-29T09:41:32;384.98;;;366.88;;
24445;SDS011;13347;50.984;5.822;2022-09-29T09:44:03;512.50;;;486.63;;
24445;SDS011;13347;50.984;5.822;2022-09-29T09:46:37;383.20;;;365.08;;
24445;SDS011;13347;50.984;5.822;2022-09-29T09:49:13;362.77;;;346.08;;
24445;SDS011;13347;50.984;5.822;2022-09-29T09:51:44;405.13;;;385.52;;
24445;SDS011;13347;50.984;5.822;2022-09-29T09:54:23;432.35;;;411.08;;
24445;SDS011;13347;50.984;5.822;2022-09-29T09:57:18;451.83;;;429.25;;
24445;SDS011;13347;50.984;5.822;2022-09-29T10:00:18;418.10;;;398.30;;
24445;SDS011;13347;50.984;5.822;2022-09-29T10:02:49;450.13;;;428.15;;
24445;SDS011;13347;50.984;5.822;2022-09-29T10:05:21;445.65;;;424.05;;
24445;SDS011;13347;50.984;5.822;2022-09-29T10:07:50;440.15;;;418.73;;
24445;SDS011;13347;50.984;5.822;2022-09-29T10:10:19;426.02;;;405.65;;
24445;SDS011;13347;50.984;5.822;2022-09-29T10:12:48;410.42;;;391.02;;
24445;SDS011;13347;50.984;5.822;2022-09-29T10:15:24;408.60;;;389.42;;
24445;SDS011;13347;50.984;5.822;2022-09-29T10:17:58;412.80;;;393.38;;
24445;SDS011;13347;50.984;5.822;2022-09-29T10:20:34;585.15;;;553.92;;
24445;SDS011;13347;50.984;5.822;2022-09-29T10:25:50;533.20;;;506.40;;
24445;SDS011;13347;50.984;5.822;2022-09-29T10:28:20;458.88;;;436.40;;
24445;SDS011;13347;50.984;5.822;2022-09-29T10:30:48;483.65;;;459.98;;
24445;SDS011;13347;50.984;5.822;2022-09-29T10:33:16;487.98;;;464.13;;
24445;SDS011;13347;50.984;5.822;2022-09-29T10:35:48;505.33;;;479.20;;
24445;SDS011;13347;50.984;5.822;2022-09-29T10:38:28;507.45;;;481.88;;
24445;SDS011;13347;50.984;5.822;2022-09-29T10:40:57;496.83;;;472.25;;
24445;SDS011;13347;50.984;5.822;2022-09-29T10:43:34;475.00;;;452.10;;
24445;SDS011;13347;50.984;5.822;2022-09-29T10:46:03;446.83;;;425.38;;
24445;SDS011;13347;50.984;5.822;2022-09-29T10:48:31;416.52;;;396.67;;
24445;SDS011;13347;50.984;5.822;2022-09-29T10:51:00;490.75;;;466.20;;
24445;SDS011;13347;50.984;5.822;2022-09-29T10:53:33;393.70;;;374.80;;
24445;SDS011;13347;50.984;5.822;2022-09-29T10:56:04;404.00;;;384.92;;
24445;SDS011;13347;50.984;5.822;2022-09-29T10:58:41;401.08;;;381.73;;
24445;SDS011;13347;50.984;5.822;2022-09-29T11:01:12;377.45;;;359.52;;
24445;SDS011;13347;50.984;5.822;2022-09-29T11:03:45;423.08;;;402.23;;
24445;SDS011;13347;50.984;5.822;2022-09-29T11:06:19;255.82;;;244.57;;
24445;SDS011;13347;50.984;5.822;2022-09-29T11:08:53;275.13;;;262.98;;
24445;SDS011;13347;50.984;5.822;2022-09-29T11:11:26;286.48;;;273.83;;
24445;SDS011;13347;50.984;5.822;2022-09-29T11:13:56;301.27;;;287.73;;
24445;SDS011;13347;50.984;5.822;2022-09-29T11:16:28;302.95;;;289.25;;
24445;SDS011;13347;50.984;5.822;2022-09-29T11:18:58;336.65;;;321.02;;
24445;SDS011;13347;50.984;5.822;2022-09-29T11:24:46;300.75;;;287.08;;
24445;SDS011;13347;50.984;5.822;2022-09-29T11:27:40;309.85;;;295.92;;
24445;SDS011;13347;50.984;5.822;2022-09-29T11:30:18;318.27;;;304.15;;
24445;SDS011;13347;50.984;5.822;2022-09-29T11:33:00;394.65;;;376.10;;
24445;SDS011;13347;50.984;5.822;2022-09-29T11:35:49;378.65;;;360.63;;
24445;SDS011;13347;50.984;5.822;2022-09-29T11:38:30;388.70;;;370.35;;
24445;SDS011;13347;50.984;5.822;2022-09-29T11:41:10;389.92;;;371.55;;
24445;SDS011;13347;50.984;5.822;2022-09-29T11:43:57;413.10;;;393.27;;
24445;SDS011;13347;50.984;5.822;2022-09-29T11:46:46;351.10;;;335.00;;
24445;SDS011;13347;50.984;5.822;2022-09-29T11:49:28;307.98;;;294.25;;
24445;SDS011;13347;50.984;5.822;2022-09-29T11:52:09;347.63;;;330.45;;
24445;SDS011;13347;50.984;5.822;2022-09-29T11:54:53;279.48;;;267.17;;
24445;SDS011;13347;50.984;5.822;2022-09-29T11:57:35;330.27;;;315.17;;
24445;SDS011;13347;50.984;5.822;2022-09-29T12:00:20;311.55;;;297.52;;
24445;SDS011;13347;50.984;5.822;2022-09-29T12:06:05;383.52;;;365.42;;
24445;SDS011;13347;50.984;5.822;2022-09-29T12:08:48;355.15;;;338.92;;
24445;SDS011;13347;50.984;5.822;2022-09-29T12:11:30;384.83;;;366.88;;
24445;SDS011;13347;50.984;5.822;2022-09-29T12:14:08;376.13;;;358.42;;
24445;SDS011;13347;50.984;5.822;2022-09-29T12:16:42;642.17;;;605.67;;
24445;SDS011;13347;50.984;5.822;2022-09-29T12:19:17;485.33;;;460.00;;
24445;SDS011;13347;50.984;5.822;2022-09-29T12:21:48;435.77;;;414.33;;
24445;SDS011;13347;50.984;5.822;2022-09-29T12:24:19;304.17;;;290.65;;
24445;SDS011;13347;50.984;5.822;2022-09-29T12:26:52;356.27;;;339.48;;
24445;SDS011;13347;50.984;5.822;2022-09-29T12:29:27;263.25;;;251.75;;
24445;SDS011;13347;50.984;5.822;2022-09-29T12:31:59;222.75;;;213.23;;
24445;SDS011;13347;50.984;5.822;2022-09-29T12:34:32;218.88;;;209.52;;
24445;SDS011;13347;50.984;5.822;2022-09-29T12:37:05;199.27;;;190.73;;
24445;SDS011;13347;50.984;5.822;2022-09-29T12:39:40;138.43;;;132.40;;
24445;SDS011;13347;50.984;5.822;2022-09-29T12:42:19;130.32;;;124.68;;
24445;SDS011;13347;50.984;5.822;2022-09-29T12:44:56;143.10;;;136.90;;
24445;SDS011;13347;50.984;5.822;2022-09-29T12:47:32;92.80;;;88.78;;
24445;SDS011;13347;50.984;5.822;2022-09-29T12:50:14;105.88;;;101.28;;
24445;SDS011;13347;50.984;5.822;2022-09-29T12:52:47;101.60;;;97.18;;
24445;SDS011;13347;50.984;5.822;2022-09-29T12:55:22;78.15;;;74.45;;
24445;SDS011;13347;50.984;5.822;2022-09-29T12:57:56;210.48;;;200.95;;
24445;SDS011;13347;50.984;5.822;2022-09-29T13:00:26;121.35;;;115.75;;
24445;SDS011;13347;50.984;5.822;2022-09-29T13:03:16;93.75;;;89.75;;
24445;SDS011;13347;50.984;5.822;2022-09-29T13:09:21;169.35;;;161.93;;
24445;SDS011;13347;50.984;5.822;2022-09-29T13:12:09;204.85;;;196.05;;
24445;SDS011;13347;50.984;5.822;2022-09-29T13:14:55;244.85;;;234.23;;
24445;SDS011;13347;50.984;5.822;2022-09-29T13:17:35;202.32;;;193.68;;
24445;SDS011;13347;50.984;5.822;2022-09-29T13:20:19;278.60;;;266.02;;
24445;SDS011;13347;50.984;5.822;2022-09-29T13:23:11;249.20;;;238.50;;
24445;SDS011;13347;50.984;5.822;2022-09-29T13:25:52;254.93;;;243.77;;
24445;SDS011;13347;50.984;5.822;2022-09-29T13:28:28;285.90;;;273.38;;
24445;SDS011;13347;50.984;5.822;2022-09-29T13:31:02;421.95;;;401.75;;
24445;SDS011;13347;50.984;5.822;2022-09-29T13:33:32;323.98;;;309.42;;
24445;SDS011;13347;50.984;5.822;2022-09-29T13:36:00;245.57;;;235.10;;
24445;SDS011;13347;50.984;5.822;2022-09-29T13:38:28;226.65;;;217.00;;
24445;SDS011;13347;50.984;5.822;2022-09-29T13:41:11;188.63;;;180.43;;
24445;SDS011;13347;50.984;5.822;2022-09-29T13:44:02;100.85;;;96.40;;
24445;SDS011;13347;50.984;5.822;2022-09-29T13:46:49;82.88;;;79.20;;
24445;SDS011;13347;50.984;5.822;2022-09-29T13:49:28;55.72;;;53.03;;
24445;SDS011;13347;50.984;5.822;2022-09-29T13:51:59;43.33;;;41.33;;
24445;SDS011;13347;50.984;5.822;2022-09-29T13:54:47;32.50;;;31.00;;
24445;SDS011;13347;50.984;5.822;2022-09-29T13:57:18;50.25;;;47.92;;
24445;SDS011;13347;50.984;5.822;2022-09-29T14:02:34;37.20;;;35.47;;
24445;SDS011;13347;50.984;5.822;2022-09-29T14:05:04;61.75;;;58.97;;
24445;SDS011;13347;50.984;5.822;2022-09-29T14:08:06;121.78;;;116.47;;
24445;SDS011;13347;50.984;5.822;2022-09-29T14:10:40;171.95;;;164.35;;
24445;SDS011;13347;50.984;5.822;2022-09-29T14:13:10;238.52;;;228.20;;
24445;SDS011;13347;50.984;5.822;2022-09-29T14:15:44;271.35;;;259.27;;
24445;SDS011;13347;50.984;5.822;2022-09-29T14:18:19;277.35;;;265.00;;
24445;SDS011;13347;50.984;5.822;2022-09-29T14:20:57;343.33;;;327.75;;
24445;SDS011;13347;50.984;5.822;2022-09-29T14:23:46;314.17;;;300.15;;
24445;SDS011;13347;50.984;5.822;2022-09-29T14:29:16;282.77;;;270.20;;
24445;SDS011;13347;50.984;5.822;2022-09-29T14:31:47;292.63;;;279.75;;
24445;SDS011;13347;50.984;5.822;2022-09-29T14:34:19;322.08;;;307.40;;
24445;SDS011;13347;50.984;5.822;2022-09-29T14:36:50;339.70;;;324.23;;
24445;SDS011;13347;50.984;5.822;2022-09-29T14:39:20;393.67;;;375.08;;
24445;SDS011;13347;50.984;5.822;2022-09-29T14:41:49;323.65;;;309.17;;
24445;SDS011;13347;50.984;5.822;2022-09-29T14:44:17;320.60;;;306.00;;
24445;SDS011;13347;50.984;5.822;2022-09-29T14:47:12;321.45;;;307.08;;
24445;SDS011;13347;50.984;5.822;2022-09-29T14:50:20;341.35;;;326.13;;
24445;SDS011;13347;50.984;5.822;2022-09-29T14:53:24;293.05;;;280.27;;
24445;SDS011;13347;50.984;5.822;2022-09-29T14:56:16;344.90;;;329.13;;
24445;SDS011;13347;50.984;5.822;2022-09-29T14:58:57;292.80;;;279.98;;
24445;SDS011;13347;50.984;5.822;2022-09-29T15:01:33;260.92;;;249.50;;
24445;SDS011;13347;50.984;5.822;2022-09-29T15:04:03;251.65;;;240.90;;